AirNav   Free SoundLink Mini II speaker
 
 1028 users online  

63CL G3 Ranch Airport
Capay, California, USA

GOING TO CAPAY?


FAA INFORMATION EFFECTIVE 26 MARCH 2020

Location

FAA Identifier: 63CL
Lat/Long: 38-42-59.6520N 122-08-18.9040W
38-42.994200N 122-08.315067W
38.7165700,-122.1385844
(estimated)
Elevation: 360 ft. / 110 m (estimated)
Variation: 16E (1985)
From city: 4 miles W of CAPAY, CA
Time zone: UTC -7 (UTC -8 during Standard Time)
Zip code: 95607

Airport Operations

Airport use: Private use. Permission required prior to landing
Activation date: 08/1970
Control tower: no
ARTCC: OAKLAND CENTER
FSS: RANCHO MURIETA FLIGHT SERVICE STATION
Attendance: UNATNDD
Wind indicator: no
Segmented circle: no

Airport Communications

WX AWOS-3 at DWA (16 nm SE): 125.775 (530-750-2759)
WX AWOS-3 at EDU (20 nm SE): 119.025 (530-754-6839)

Nearby radio navigation aids

VOR radial/distance  VOR name  Freq  Var
ILAr176/21.9WILLIAMS VORTAC114.4018E
SACr284/32.0SACRAMENTO VORTAC115.2017E
STSr052/33.9SANTA ROSA VOR/DME113.0016E
SGDr002/34.1SCAGGS ISLAND VORTAC112.1017E
MCCr258/34.5MC CLELLAN VOR/DME109.2017E
MYVr213/35.0MARYSVILLE VOR/DME110.8016E

Airport Services

Airframe service: NONE
Powerplant service: NONE

Runway Information

Runway NW/SE

Dimensions: 2800 x 110 ft. / 853 x 34 m
Surface: turf
RUNWAY NW  RUNWAY SE
Traffic pattern: leftleft
Obstructions: plinepline, 60 ft. from runway

Airport Ownership and Management from official FAA records

Ownership: Privately-owned
Owner: C. M. GORDON
P. O. BOX 125
BROOKS, CA 95606
Phone (530) 796-3188
Manager: BOB GORDON
P. O. BOX 113
BROOKS, CA 95606
Phone (530) 908-9241

Additional Remarks

FOR CD CTC OAKLAND ARTCC AT 510-745-3380.

Instrument Procedures

There are no published instrument procedures at 63CL.

Some nearby airports with instrument procedures:

O41 - Watts-Woodland Airport (13 nm E)
KDWA - Yolo County Airport (16 nm SE)
KEDU - University Airport (20 nm SE)
KVCB - Nut Tree Airport (22 nm S)
KSMF - Sacramento International Airport (26 nm E)
 
Loc | Ops | Rwys | IFR | FBO | Links
Com | Nav | Svcs | Stats | Notes

Sonoma Jet Center
 
Area around 63CL (G3 Ranch Airport)
 
Road maps at: MapQuest Bing Google
 
Aerial photo
No photo
 
Sectional chart

 
Airport distance calculator
Flying to G3 Ranch Airport? Find the distance to fly.

From to 63CL

Sunrise and sunset
Times for 02-Apr-2020
 Local
(UTC-7)
 Zulu
(UTC)
Morning civil twilight06:2413:24
Sunrise06:5113:51
Sunset19:3302:33
Evening civil twilight20:0003:00

Current date and time
Zulu (UTC)  02-Apr-2020 21:12:36
Local (UTC-7)  02-Apr-2020 14:12:36
 
METAR
KEDU 
20nm SE 
022055Z AUTO 36012G19KT 10SM CLR 18/M07 A3006 RMK AO1
KVCB 
22nm SE 
022053Z AUTO 35008KT 10SM CLR 19/M06 A3007 RMK AO2 SLP181 T01941061 58012
KSMF 
25nm E 
022053Z 31015KT 10SM CLR 18/M04 A3005 RMK AO2 SLP175 T01831044 56013
KSUU 
29nm S 
022058Z 05005KT 10SM CLR 20/M06 A3006 RMK AO2A SLP186 T02031064 57013 $
KAPC 
32nm S 
022054Z 24010KT 10SM CLR 18/M01 A3007 RMK AO2 SLP172 T01831006 58010
KSAC 
33nm SE 
022053Z 34013KT 10SM CLR 19/M07 A3005 RMK AO2 SLP176 T01941067 58011
KSTS 
34nm W 
707-573-8393
022053Z 00000KT 10SM CLR 18/M04 A3007 RMK AO2 SLP178 T01781039 58017
KMCC 
35nm E 
022055Z AUTO 32013G19KT 10SM CLR 18/M07 A3005 RMK AO2
KO69 
35nm SW 
022055Z AUTO 25011KT 10SM CLR 17/03 A3009 RMK A01
KMYV 
35nm NE 
022053Z AUTO 32013KT 10SM CLR 18/M04 A3005 RMK AO2 SLP180 T01831039 58014
TAF
KSMF 
25nm E 
021739Z 0218/0318 33012G20KT P6SM SKC FM030100 VRB05KT P6SM FEW250
KSUU 
29nm S 
021900Z 0219/0401 36012G18KT 9999 SKC QNH3004INS BECMG 0222/0223 24012G18KT 9999 SKC QNH3002INS BECMG 0316/0317 36012KT 9999 SKC QNH3004INS TX20/0223Z TN03/0313Z
NOTAMs
Click for the latest NOTAMs
NOTAMs are issued by the DoD/FAA and will open in a separate window not controlled by AirNav.

 

 
 

Would you like to see your business listed on this page?

 If your business provides an interesting product or service to pilots, flight crews, aircraft, or users of the G3 Ranch Airport, you should consider listing it here.  To start the listing process, click on the button below
 
Add a business
 

Other Pages about G3 Ranch Airport

Update a link
 
Copyright © AirNav, LLC. All rights reserved. Privacy Policy  Contact